Time;durP1;ratioP1;P1;durP2;ratioP2;P2;SDS_P1;SDS_P2;PMS_P1;PMS_P2;Temp;Humidity;BMP_temperature;BMP_pressure;BME280_temperature;BME280_humidity;BME280_pressure;Samples;Min_cycle;Max_cycle;Signal;HPM_P1;HPM_P2
2022/06/29 00:00:09;;;;;;;;;;;14.00;99.90;;;;;;5114984;27;20376;-64
2022/06/29 00:02:35;;;;;;;;;;;13.90;99.90;;;;;;5099144;27;19907;-64
2022/06/29 00:05:04;;;;;;;;;;;13.80;99.90;;;;;;5093289;27;19919;-64
2022/06/29 00:07:30;;;;;;;;;;;13.60;99.90;;;;;;5118515;27;20286;-64
2022/06/29 00:09:55;;;;;;;;;;;13.50;99.90;;;;;;5093083;27;20036;-64
2022/06/29 00:12:20;;;;;;;;;;;13.50;99.90;;;;;;5099343;27;20246;-64
2022/06/29 00:14:46;;;;;;;;;;;13.40;99.90;;;;;;5112081;27;19907;-64
2022/06/29 00:17:12;;;;;;;;;;;13.40;99.90;;;;;;5112770;27;19990;-64
2022/06/29 00:19:38;;;;;;;;;;;13.40;99.90;;;;;;5114445;27;20223;-64
2022/06/29 00:22:04;;;;;;;;;;;13.30;99.90;;;;;;5105051;27;19915;-64
2022/06/29 00:24:30;;;;;;;;;;;13.30;99.90;;;;;;5116917;27;19908;-64
2022/06/29 00:26:55;;;;;;;;;;;13.20;99.90;;;;;;5095662;27;20345;-64
2022/06/29 00:29:21;;;;;;;;;;;13.20;99.90;;;;;;5119076;27;19907;-64
2022/06/29 00:31:47;;;;;;;;;;;13.10;99.90;;;;;;5119438;27;19908;-64
2022/06/29 00:34:12;;;;;;;;;;;13.10;99.90;;;;;;5110221;27;19935;-64
2022/06/29 00:36:38;;;;;;;;;;;13.10;99.90;;;;;;5115337;27;19931;-64
2022/06/29 00:39:03;;;;;;;;;;;13.10;99.90;;;;;;5107204;27;19908;-64
2022/06/29 00:41:29;;;;;;;;;;;13.20;99.90;;;;;;5097126;27;20010;-64
2022/06/29 00:43:54;;;;;;;;;;;13.20;99.90;;;;;;5113433;27;20417;-64
2022/06/29 00:46:20;;;;;;;;;;;13.30;99.90;;;;;;5092868;27;19912;-64
2022/06/29 00:48:45;;;;;;;;;;;13.40;99.90;;;;;;5096960;27;19911;-64
2022/06/29 00:51:11;;;;;;;;;;;13.50;99.90;;;;;;5108891;27;19969;-64
2022/06/29 00:53:41;;;;;;;;;;;13.40;99.90;;;;;;5118261;27;19908;-64
2022/06/29 00:56:10;;;;;;;;;;;13.60;99.90;;;;;;5114727;27;20317;-64
2022/06/29 00:58:36;;;;;;;;;;;13.50;99.90;;;;;;5091240;27;20431;-64
2022/06/29 01:01:03;;;;;;;;;;;13.60;99.90;;;;;;5112633;27;19915;-64
2022/06/29 01:03:29;;;;;;;;;;;13.60;99.90;;;;;;5108017;27;19912;-64
2022/06/29 01:05:54;;;;;;;;;;;13.60;99.90;;;;;;5118021;27;19976;-64
2022/06/29 01:08:20;;;;;;;;;;;13.60;99.90;;;;;;5113301;27;19918;-64
2022/06/29 01:10:45;;;;;;;;;;;13.50;99.90;;;;;;5110221;27;19918;-64
2022/06/29 01:13:11;;;;;;;;;;;13.40;99.90;;;;;;5109675;27;19913;-64
2022/06/29 01:15:36;;;;;;;;;;;13.40;99.90;;;;;;5119210;27;20263;-64
2022/06/29 01:18:02;;;;;;;;;;;13.40;99.90;;;;;;5114839;27;19915;-64
2022/06/29 01:20:28;;;;;;;;;;;13.40;99.90;;;;;;5111722;27;19908;-64
2022/06/29 01:22:54;;;;;;;;;;;13.40;99.90;;;;;;5116963;27;20367;-64
2022/06/29 01:25:19;;;;;;;;;;;13.40;99.90;;;;;;5116853;27;19911;-64
2022/06/29 01:27:45;;;;;;;;;;;13.40;99.90;;;;;;5115259;27;20328;-64
2022/06/29 01:30:11;;;;;;;;;;;13.40;99.90;;;;;;5117889;27;20335;-64
2022/06/29 01:32:40;;;;;;;;;;;13.40;99.90;;;;;;5106909;27;19912;-64
2022/06/29 01:35:07;;;;;;;;;;;13.40;99.90;;;;;;5092532;28;20298;-64
2022/06/29 01:37:33;;;;;;;;;;;13.50;99.90;;;;;;5113226;27;19916;-64
2022/06/29 01:39:58;;;;;;;;;;;13.60;99.90;;;;;;5091307;27;19917;-64
2022/06/29 01:42:24;;;;;;;;;;;13.70;99.90;;;;;;5106551;27;19935;-64
2022/06/29 01:44:49;;;;;;;;;;;13.70;99.90;;;;;;5092288;27;19920;-64
2022/06/29 01:47:15;;;;;;;;;;;13.70;99.90;;;;;;5117412;27;20365;-64
2022/06/29 01:49:40;;;;;;;;;;;13.80;99.90;;;;;;5111459;27;19912;-64
2022/06/29 01:52:06;;;;;;;;;;;13.90;99.90;;;;;;5119152;27;19916;-64
2022/06/29 01:54:31;;;;;;;;;;;14.00;99.90;;;;;;5109483;28;19914;-64
2022/06/29 01:56:57;;;;;;;;;;;14.00;99.90;;;;;;5114297;28;19912;-64
2022/06/29 01:59:22;;;;;;;;;;;14.00;99.90;;;;;;5117770;28;19918;-64
2022/06/29 02:01:48;;;;;;;;;;;14.00;99.90;;;;;;5116114;28;20275;-64
2022/06/29 02:04:14;;;;;;;;;;;14.20;99.90;;;;;;5115497;28;19919;-64
2022/06/29 02:06:40;;;;;;;;;;;14.20;99.90;;;;;;5111197;28;19920;-64
2022/06/29 02:09:05;;;;;;;;;;;14.10;99.90;;;;;;5092487;28;19961;-64
2022/06/29 02:11:31;;;;;;;;;;;14.00;99.90;;;;;;5107830;28;19960;-64
2022/06/29 02:13:56;;;;;;;;;;;14.00;99.90;;;;;;5115249;28;19953;-64
2022/06/29 02:16:22;;;;;;;;;;;14.00;99.90;;;;;;5096375;28;19915;-64
2022/06/29 02:18:48;;;;;;;;;;;13.90;99.90;;;;;;5111416;28;19914;-64
2022/06/29 02:21:14;;;;;;;;;;;13.90;99.90;;;;;;5119417;28;19919;-64
2022/06/29 02:23:39;;;;;;;;;;;14.00;99.90;;;;;;5108588;28;20279;-64
2022/06/29 02:26:06;;;;;;;;;;;14.00;99.90;;;;;;5115305;28;20369;-64
2022/06/29 02:28:32;;;;;;;;;;;14.00;99.90;;;;;;5095289;28;19907;-64
2022/06/29 02:36:26;;;;;;;;;;;13.70;99.90;;;;;;5110940;28;19953;-64
2022/06/29 02:38:52;;;;;;;;;;;13.60;99.90;;;;;;5112446;28;19907;-64
2022/06/29 02:41:17;;;;;;;;;;;13.50;99.90;;;;;;5113151;28;19914;-64
2022/06/29 02:43:45;;;;;;;;;;;13.40;99.90;;;;;;5114299;28;19915;-64
2022/06/29 02:46:10;;;;;;;;;;;13.30;99.90;;;;;;5114033;28;20373;-64
2022/06/29 02:48:36;;;;;;;;;;;13.30;99.90;;;;;;5111885;28;19908;-64
2022/06/29 02:51:01;;;;;;;;;;;13.20;99.90;;;;;;5109258;27;19912;-64
2022/06/29 02:53:27;;;;;;;;;;;13.20;99.90;;;;;;5114450;27;19948;-64
2022/06/29 02:55:53;;;;;;;;;;;13.10;99.90;;;;;;5118567;27;19912;-64
2022/06/29 02:58:18;;;;;;;;;;;13.00;99.90;;;;;;5119899;27;20611;-64
2022/06/29 03:00:44;;;;;;;;;;;12.90;99.90;;;;;;5101447;27;19993;-64
2022/06/29 03:03:10;;;;;;;;;;;12.90;99.90;;;;;;5112920;27;19911;-64
2022/06/29 03:05:35;;;;;;;;;;;12.80;99.90;;;;;;5089525;27;20014;-64
2022/06/29 03:08:01;;;;;;;;;;;12.90;99.90;;;;;;5113652;27;19908;-64
2022/06/29 03:10:27;;;;;;;;;;;13.00;99.90;;;;;;5111229;27;19907;-64
2022/06/29 03:12:52;;;;;;;;;;;13.00;99.90;;;;;;5095565;27;20421;-64
2022/06/29 03:15:18;;;;;;;;;;;13.00;99.90;;;;;;5118674;27;19911;-64
2022/06/29 03:17:43;;;;;;;;;;;13.00;99.90;;;;;;5118374;27;20355;-64
2022/06/29 03:20:09;;;;;;;;;;;13.20;99.90;;;;;;5091189;28;19912;-64
2022/06/29 03:22:35;;;;;;;;;;;13.20;99.90;;;;;;5097351;27;20351;-64
2022/06/29 03:25:01;;;;;;;;;;;13.30;99.90;;;;;;5094273;27;19907;-64
2022/06/29 03:27:26;;;;;;;;;;;13.40;99.90;;;;;;5118826;27;19908;-64
2022/06/29 03:29:52;;;;;;;;;;;13.50;99.90;;;;;;5099224;27;19907;-64
2022/06/29 03:32:17;;;;;;;;;;;13.60;99.90;;;;;;5109337;27;19959;-64
2022/06/29 03:34:43;;;;;;;;;;;13.60;99.90;;;;;;5116557;27;19919;-65
2022/06/29 03:37:08;;;;;;;;;;;13.80;99.90;;;;;;5118908;27;19967;-64
2022/06/29 03:39:34;;;;;;;;;;;13.80;99.90;;;;;;5110649;27;19915;-64
2022/06/29 03:42:00;;;;;;;;;;;13.90;99.90;;;;;;5118770;27;19908;-64
2022/06/29 03:44:25;;;;;;;;;;;13.90;99.90;;;;;;5108119;27;19912;-64
2022/06/29 03:46:51;;;;;;;;;;;13.90;99.90;;;;;;5114162;27;20411;-64
2022/06/29 03:49:16;;;;;;;;;;;14.00;99.90;;;;;;5114463;27;19916;-64
2022/06/29 03:51:42;;;;;;;;;;;14.10;99.90;;;;;;5115820;27;19956;-64
2022/06/29 03:54:07;;;;;;;;;;;14.20;99.90;;;;;;5110126;27;19908;-64
2022/06/29 03:56:33;;;;;;;;;;;14.20;99.90;;;;;;5113960;27;19919;-64
2022/06/29 03:58:58;;;;;;;;;;;14.30;99.90;;;;;;5120480;27;20379;-64
2022/06/29 04:01:24;;;;;;;;;;;14.50;99.90;;;;;;5114299;27;20302;-64
2022/06/29 04:03:50;;;;;;;;;;;14.50;99.90;;;;;;5096419;27;20391;-64
2022/06/29 04:06:15;;;;;;;;;;;14.60;99.90;;;;;;5113361;27;20451;-64
2022/06/29 04:08:41;;;;;;;;;;;14.80;99.90;;;;;;5112143;27;20273;-64
2022/06/29 04:11:48;;;;;;;;;;;14.80;99.90;;;;;;5100919;27;20314;-64
2022/06/29 04:13:52;;;;;;;;;;;14.90;99.90;;;;;;5109581;27;19915;-64
2022/06/29 04:16:17;;;;;;;;;;;15.00;99.90;;;;;;5109232;27;19915;-65
2022/06/29 04:18:43;;;;;;;;;;;15.10;99.90;;;;;;5107606;27;19908;-65
2022/06/29 04:21:09;;;;;;;;;;;15.20;99.90;;;;;;5111855;27;20006;-64
2022/06/29 04:23:34;;;;;;;;;;;15.30;99.90;;;;;;5119471;27;20347;-64
2022/06/29 04:26:00;;;;;;;;;;;15.50;99.90;;;;;;5118695;27;19945;-63
2022/06/29 04:28:26;;;;;;;;;;;15.70;99.90;;;;;;5121077;27;20282;-63
2022/06/29 04:30:51;;;;;;;;;;;15.80;99.90;;;;;;5113423;27;19911;-64
2022/06/29 04:33:17;;;;;;;;;;;16.00;99.90;;;;;;5111041;27;19912;-64
2022/06/29 04:35:42;;;;;;;;;;;16.10;99.90;;;;;;5090580;27;19934;-64
2022/06/29 04:38:08;;;;;;;;;;;16.10;99.90;;;;;;5110133;27;20465;-64
2022/06/29 04:40:33;;;;;;;;;;;16.10;99.90;;;;;;5111714;27;20359;-64
2022/06/29 04:42:59;;;;;;;;;;;16.20;99.90;;;;;;5108695;27;19912;-64
2022/06/29 04:48:08;;;;;;;;;;;16.20;99.90;;;;;;5112047;27;19919;-64
2022/06/29 04:50:34;;;;;;;;;;;16.20;99.90;;;;;;5117312;27;19907;-64
2022/06/29 04:52:59;;;;;;;;;;;16.20;99.90;;;;;;5111857;27;19912;-64
2022/06/29 04:55:28;;;;;;;;;;;16.40;99.90;;;;;;5090969;28;19950;-64
2022/06/29 04:57:53;;;;;;;;;;;16.50;99.90;;;;;;5095068;27;19935;-64
2022/06/29 05:00:19;;;;;;;;;;;16.60;99.90;;;;;;5111406;27;19911;-64
2022/06/29 05:02:44;;;;;;;;;;;16.70;99.90;;;;;;5108929;27;19915;-64
2022/06/29 05:05:10;;;;;;;;;;;16.80;99.90;;;;;;5109428;27;20394;-63
2022/06/29 05:07:35;;;;;;;;;;;16.90;99.90;;;;;;5086610;27;19915;-64
2022/06/29 05:10:01;;;;;;;;;;;16.90;99.90;;;;;;5110233;27;20481;-64
2022/06/29 05:12:26;;;;;;;;;;;17.10;99.90;;;;;;5114805;27;19911;-64
2022/06/29 05:14:52;;;;;;;;;;;17.20;99.90;;;;;;5116211;27;19913;-64
2022/06/29 05:17:17;;;;;;;;;;;17.30;99.90;;;;;;5095891;27;19937;-64
2022/06/29 05:19:43;;;;;;;;;;;17.40;99.90;;;;;;5086314;28;19912;-63
2022/06/29 05:22:08;;;;;;;;;;;17.40;99.90;;;;;;5116799;27;19913;-63
2022/06/29 05:24:34;;;;;;;;;;;17.40;99.90;;;;;;5096316;27;19907;-64
2022/06/29 05:27:00;;;;;;;;;;;17.50;99.90;;;;;;5114441;27;20534;-64
2022/06/29 05:29:25;;;;;;;;;;;17.60;99.90;;;;;;5112392;27;19971;-64
2022/06/29 05:31:51;;;;;;;;;;;17.80;99.90;;;;;;5113173;27;19915;-64
2022/06/29 05:34:17;;;;;;;;;;;18.10;99.90;;;;;;5112797;27;19916;-64
2022/06/29 05:36:42;;;;;;;;;;;18.30;99.90;;;;;;5114655;27;20015;-63
2022/06/29 05:39:08;;;;;;;;;;;18.50;99.90;;;;;;5116781;27;20009;-63
2022/06/29 05:41:33;;;;;;;;;;;18.80;99.90;;;;;;5120109;27;20447;-63
2022/06/29 05:43:59;;;;;;;;;;;18.90;99.90;;;;;;5112026;27;19912;-64
2022/06/29 05:46:24;;;;;;;;;;;19.10;99.90;;;;;;5099163;28;19911;-64
2022/06/29 05:48:50;;;;;;;;;;;19.50;99.90;;;;;;5111679;27;19950;-64
2022/06/29 05:51:15;;;;;;;;;;;20.00;99.90;;;;;;5111923;27;19968;-64
2022/06/29 05:53:41;;;;;;;;;;;20.30;99.90;;;;;;5110755;27;20646;-64
2022/06/29 05:56:06;;;;;;;;;;;20.60;99.90;;;;;;5106020;28;20022;-64
2022/06/29 05:58:32;;;;;;;;;;;20.50;99.90;;;;;;5090564;28;20438;-64
2022/06/29 06:00:57;;;;;;;;;;;20.30;99.90;;;;;;5088234;28;20888;-64
2022/06/29 06:03:23;;;;;;;;;;;20.50;99.90;;;;;;5091419;28;19908;-64
2022/06/29 06:05:49;;;;;;;;;;;20.70;99.90;;;;;;5103707;28;19947;-64
2022/06/29 06:08:15;;;;;;;;;;;20.80;99.90;;;;;;5109446;28;19908;-65
2022/06/29 06:10:41;;;;;;;;;;;21.00;99.90;;;;;;5106304;28;19912;-64
2022/06/29 06:13:06;;;;;;;;;;;21.00;99.90;;;;;;5104488;28;19915;-64
2022/06/29 06:15:33;;;;;;;;;;;21.20;99.90;;;;;;5108267;28;20323;-64
2022/06/29 06:17:58;;;;;;;;;;;21.30;99.90;;;;;;5091476;28;19912;-64
2022/06/29 06:20:24;;;;;;;;;;;21.20;99.90;;;;;;5105275;28;19907;-64
2022/06/29 06:22:49;;;;;;;;;;;21.20;99.90;;;;;;5097693;28;19916;-64
2022/06/29 06:25:15;;;;;;;;;;;21.20;99.90;;;;;;5115003;27;19910;-64
2022/06/29 06:27:41;;;;;;;;;;;21.20;99.90;;;;;;5109682;27;20440;-65
2022/06/29 06:30:06;;;;;;;;;;;21.30;99.90;;;;;;5114953;27;19942;-64
2022/06/29 06:32:32;;;;;;;;;;;21.20;99.90;;;;;;5115565;27;19912;-64
2022/06/29 06:34:57;;;;;;;;;;;21.50;99.90;;;;;;5112356;27;20358;-64
2022/06/29 06:37:23;;;;;;;;;;;21.70;99.90;;;;;;5090044;28;19912;-65
2022/06/29 06:42:32;;;;;;;;;;;21.50;99.90;;;;;;5109938;27;19915;-64
2022/06/29 06:44:58;;;;;;;;;;;21.60;99.90;;;;;;5117835;27;19915;-64
2022/06/29 06:47:23;;;;;;;;;;;21.70;99.90;;;;;;5098294;27;19927;-64
2022/06/29 06:49:49;;;;;;;;;;;21.90;99.90;;;;;;5114971;27;20024;-64
2022/06/29 06:52:17;;;;;;;;;;;21.90;99.90;;;;;;5110318;27;20075;-65
2022/06/29 06:54:44;;;;;;;;;;;21.90;99.90;;;;;;5117046;27;19912;-65
2022/06/29 06:57:10;;;;;;;;;;;21.80;99.90;;;;;;5095135;27;20323;-64
2022/06/29 06:59:36;;;;;;;;;;;21.80;99.90;;;;;;5115093;27;19959;-64
2022/06/29 07:02:02;;;;;;;;;;;21.90;99.90;;;;;;5115400;27;19914;-65
2022/06/29 07:04:28;;;;;;;;;;;22.00;99.90;;;;;;5117065;27;19915;-64
2022/06/29 07:06:53;;;;;;;;;;;22.00;99.90;;;;;;5105200;27;19912;-65
2022/06/29 07:09:19;;;;;;;;;;;22.00;99.90;;;;;;5119643;27;19945;-64
2022/06/29 07:11:44;;;;;;;;;;;22.00;99.90;;;;;;5113231;27;19999;-65
2022/06/29 07:14:10;;;;;;;;;;;22.00;99.90;;;;;;5114495;27;20339;-65
2022/06/29 07:16:35;;;;;;;;;;;22.00;99.90;;;;;;5099807;27;19954;-65
2022/06/29 07:19:01;;;;;;;;;;;21.70;99.90;;;;;;5111982;27;20370;-65
2022/06/29 07:21:26;;;;;;;;;;;21.80;99.90;;;;;;5112724;27;19911;-65
2022/06/29 07:23:52;;;;;;;;;;;22.00;99.90;;;;;;5115955;27;19914;-65
2022/06/29 07:26:17;;;;;;;;;;;22.00;99.90;;;;;;5118422;27;19915;-65
2022/06/29 07:28:43;;;;;;;;;;;21.80;99.90;;;;;;5109910;27;20431;-64
2022/06/29 07:31:08;;;;;;;;;;;21.70;99.90;;;;;;5111503;27;20002;-64
2022/06/29 07:33:34;;;;;;;;;;;21.80;99.90;;;;;;5117157;27;20003;-65
2022/06/29 07:36:00;;;;;;;;;;;21.80;99.90;;;;;;5113842;27;19923;-64
2022/06/29 07:38:25;;;;;;;;;;;21.80;99.90;;;;;;5115462;27;19980;-64
2022/06/29 07:40:51;;;;;;;;;;;21.60;99.90;;;;;;5115574;27;20002;-64
2022/06/29 07:43:17;;;;;;;;;;;21.60;99.90;;;;;;5117465;27;19975;-64
2022/06/29 07:45:43;;;;;;;;;;;21.50;99.90;;;;;;5113364;27;19960;-64
2022/06/29 07:48:08;;;;;;;;;;;21.50;99.90;;;;;;5110548;27;19912;-64
2022/06/29 07:50:34;;;;;;;;;;;21.50;99.90;;;;;;5113439;27;20333;-64
2022/06/29 07:52:59;;;;;;;;;;;21.70;99.90;;;;;;5116819;27;20467;-64
2022/06/29 07:55:25;;;;;;;;;;;21.90;99.90;;;;;;5116668;27;19927;-64
2022/06/29 07:57:50;;;;;;;;;;;22.20;99.90;;;;;;5116553;27;19959;-65
2022/06/29 08:00:16;;;;;;;;;;;22.40;99.90;;;;;;5089403;28;19908;-65
2022/06/29 08:02:41;;;;;;;;;;;22.80;99.90;;;;;;5112555;27;19911;-65
2022/06/29 08:05:07;;;;;;;;;;;22.80;99.90;;;;;;5110565;27;20014;-64
2022/06/29 08:07:32;;;;;;;;;;;22.90;99.90;;;;;;5115992;27;20175;-64
2022/06/29 08:09:58;;;;;;;;;;;22.80;99.90;;;;;;5107923;27;20282;-64
2022/06/29 08:12:24;;;;;;;;;;;22.80;99.90;;;;;;5087332;28;19953;-64
2022/06/29 08:14:49;;;;;;;;;;;22.40;99.90;;;;;;5116475;27;19938;-64
2022/06/29 08:17:15;;;;;;;;;;;22.40;99.90;;;;;;5113603;27;19991;-64
2022/06/29 08:19:40;;;;;;;;;;;22.40;99.90;;;;;;5105332;27;19930;-65
2022/06/29 08:22:06;;;;;;;;;;;22.60;99.90;;;;;;5108900;27;20322;-65
2022/06/29 08:24:31;;;;;;;;;;;22.40;99.90;;;;;;5114560;27;20007;-65
2022/06/29 08:26:56;;;;;;;;;;;22.20;99.90;;;;;;5119711;27;19983;-65
2022/06/29 08:29:22;;;;;;;;;;;22.10;99.90;;;;;;5111928;27;20411;-65
2022/06/29 08:31:48;;;;;;;;;;;22.20;99.90;;;;;;5096352;27;19908;-65
2022/06/29 08:34:16;;;;;;;;;;;22.10;99.90;;;;;;5112693;27;19958;-65
2022/06/29 08:36:41;;;;;;;;;;;22.00;99.90;;;;;;5117344;27;19922;-64
2022/06/29 08:39:07;;;;;;;;;;;21.80;99.90;;;;;;5094827;28;19908;-64
2022/06/29 08:41:32;;;;;;;;;;;21.80;99.90;;;;;;5109210;27;19907;-64
2022/06/29 08:43:59;;;;;;;;;;;21.70;99.90;;;;;;5114587;27;19912;-64
2022/06/29 08:46:24;;;;;;;;;;;21.70;99.90;;;;;;5113883;27;20243;-64
2022/06/29 08:48:50;;;;;;;;;;;21.80;99.90;;;;;;5085562;28;20308;-64
2022/06/29 08:51:18;;;;;;;;;;;21.80;99.90;;;;;;5110087;27;20267;-64
2022/06/29 08:53:44;;;;;;;;;;;21.90;99.90;;;;;;5114583;27;19912;-65
2022/06/29 08:56:10;;;;;;;;;;;21.90;99.90;;;;;;5109557;27;20188;-65
2022/06/29 08:58:35;;;;;;;;;;;21.90;99.90;;;;;;5117492;27;20628;-65
2022/06/29 09:01:01;;;;;;;;;;;22.10;99.90;;;;;;5116639;27;20416;-64
2022/06/29 09:03:26;;;;;;;;;;;22.00;99.90;;;;;;5111936;27;19914;-64
2022/06/29 09:05:56;;;;;;;;;;;21.90;99.90;;;;;;5112322;27;20182;-66
2022/06/29 09:08:22;;;;;;;;;;;22.10;99.90;;;;;;5114979;27;19919;-65
2022/06/29 09:10:48;;;;;;;;;;;22.10;99.90;;;;;;5114349;27;19907;-65
2022/06/29 09:13:21;;;;;;;;;;;21.90;99.90;;;;;;5090833;27;20388;-64
2022/06/29 09:15:47;;;;;;;;;;;21.80;99.90;;;;;;5111956;27;19908;-64
2022/06/29 09:18:26;;;;;;;;;;;21.90;99.90;;;;;;5111237;27;20005;-64
2022/06/29 09:20:54;;;;;;;;;;;21.80;99.90;;;;;;5109331;27;19960;-64
2022/06/29 09:23:20;;;;;;;;;;;22.10;99.90;;;;;;5112317;27;19983;-64
2022/06/29 09:25:45;;;;;;;;;;;22.10;99.90;;;;;;5116122;27;19987;-65
2022/06/29 09:28:17;;;;;;;;;;;22.40;99.90;;;;;;5114454;27;19961;-64
2022/06/29 09:30:43;;;;;;;;;;;22.80;99.90;;;;;;5103228;27;19995;-64
2022/06/29 09:33:09;;;;;;;;;;;22.90;99.90;;;;;;5114573;27;20027;-64
2022/06/29 09:35:35;;;;;;;;;;;22.90;99.90;;;;;;5113431;27;19967;-65
2022/06/29 09:38:19;;;;;;;;;;;22.70;99.90;;;;;;5110774;27;19912;-64
2022/06/29 09:41:01;;;;;;;;;;;22.80;99.90;;;;;;5107543;27;20266;-64
2022/06/29 09:43:27;;;;;;;;;;;22.70;99.90;;;;;;5086694;27;20291;-64
2022/06/29 09:45:54;;;;;;;;;;;23.00;99.90;;;;;;5109616;27;20054;-65
2022/06/29 09:48:21;;;;;;;;;;;23.30;99.90;;;;;;5107238;28;19927;-65
2022/06/29 09:50:47;;;;;;;;;;;23.20;99.90;;;;;;5106604;27;19919;-65
2022/06/29 09:53:14;;;;;;;;;;;23.20;99.90;;;;;;5111186;27;19911;-64
2022/06/29 09:55:39;;;;;;;;;;;23.10;99.90;;;;;;5109188;28;19912;-64
2022/06/29 09:58:05;;;;;;;;;;;23.10;99.90;;;;;;5108115;28;20060;-64
2022/06/29 10:03:15;;;;;;;;;;;23.10;99.90;;;;;;5107572;28;19915;-64
2022/06/29 10:05:59;;;;;;;;;;;23.00;99.90;;;;;;5115335;28;20231;-65
2022/06/29 10:08:26;;;;;;;;;;;23.20;99.90;;;;;;5106410;28;20359;-65
2022/06/29 10:10:56;;;;;;;;;;;23.40;99.90;;;;;;5109616;28;19907;-65
2022/06/29 10:13:42;;;;;;;;;;;23.40;99.90;;;;;;5106617;28;19995;-65
2022/06/29 10:16:16;;;;;;;;;;;23.70;99.90;;;;;;5113435;28;19976;-65
2022/06/29 10:18:57;;;;;;;;;;;24.10;99.90;;;;;;5105626;28;19980;-65
2022/06/29 10:21:23;;;;;;;;;;;24.30;99.90;;;;;;5113097;28;19920;-65
2022/06/29 10:23:51;;;;;;;;;;;24.20;99.90;;;;;;5101110;28;19941;-65
2022/06/29 10:26:35;;;;;;;;;;;23.90;99.90;;;;;;5107723;28;19908;-64
2022/06/29 10:29:10;;;;;;;;;;;23.80;99.90;;;;;;5111225;28;19954;-64
2022/06/29 10:34:31;;;;;;;;;;;24.80;99.90;;;;;;5107944;28;19919;-64
2022/06/29 10:37:02;;;;;;;;;;;24.70;99.90;;;;;;5108048;28;19994;-64
2022/06/29 10:39:45;;;;;;;;;;;25.10;99.90;;;;;;5114405;28;19914;-64
2022/06/29 10:45:14;;;;;;;;;;;25.40;99.70;;;;;;5110062;28;19989;-64
2022/06/29 10:47:40;;;;;;;;;;;26.10;99.90;;;;;;5110806;28;19927;-64
2022/06/29 10:50:24;;;;;;;;;;;25.80;99.40;;;;;;5110319;28;20273;-64
2022/06/29 10:53:03;;;;;;;;;;;25.80;99.50;;;;;;5102931;28;19919;-65
2022/06/29 10:55:29;;;;;;;;;;;25.30;98.90;;;;;;5113387;28;19951;-64
2022/06/29 10:57:56;;;;;;;;;;;25.00;99.90;;;;;;5109527;28;19911;-64
2022/06/29 11:00:24;;;;;;;;;;;25.10;99.90;;;;;;5104499;28;19926;-65
2022/06/29 11:02:50;;;;;;;;;;;25.90;99.80;;;;;;5088926;28;20122;-64
2022/06/29 11:05:15;;;;;;;;;;;26.00;98.50;;;;;;5113816;28;19920;-64
2022/06/29 11:13:11;;;;;;;;;;;25.80;99.70;;;;;;5108181;27;19973;-64
2022/06/29 11:15:40;;;;;;;;;;;26.00;98.00;;;;;;5102833;27;20331;-64
2022/06/29 11:18:06;;;;;;;;;;;25.80;99.10;;;;;;5109047;27;19920;-64
2022/06/29 11:20:31;;;;;;;;;;;25.60;99.20;;;;;;5113631;27;19968;-64
2022/06/29 11:22:58;;;;;;;;;;;25.60;98.80;;;;;;5117205;27;19916;-64
2022/06/29 11:25:24;;;;;;;;;;;25.90;99.40;;;;;;5110547;27;19967;-64
2022/06/29 11:27:50;;;;;;;;;;;26.00;98.60;;;;;;5114972;27;20354;-64
2022/06/29 11:30:20;;;;;;;;;;;26.50;98.00;;;;;;5119014;27;20002;-64
2022/06/29 11:32:46;;;;;;;;;;;27.60;96.10;;;;;;5094195;27;19915;-64
2022/06/29 11:35:13;;;;;;;;;;;27.00;95.70;;;;;;5110252;27;19919;-64
2022/06/29 11:37:48;;;;;;;;;;;27.30;96.00;;;;;;5117730;27;19922;-64
2022/06/29 11:40:14;;;;;;;;;;;27.30;95.00;;;;;;5112894;27;19915;-64
2022/06/29 11:45:28;;;;;;;;;;;27.50;94.50;;;;;;5112630;27;19938;-65
2022/06/29 11:47:54;;;;;;;;;;;27.60;93.90;;;;;;5106552;27;20333;-65
2022/06/29 11:50:21;;;;;;;;;;;27.90;93.50;;;;;;5107407;27;19915;-65
2022/06/29 11:52:48;;;;;;;;;;;28.90;90.90;;;;;;5116803;27;19919;-65
2022/06/29 11:55:14;;;;;;;;;;;29.00;89.30;;;;;;5116998;27;19958;-65
2022/06/29 11:57:39;;;;;;;;;;;28.40;90.90;;;;;;5113199;27;20163;-65
2022/06/29 12:00:08;;;;;;;;;;;28.40;89.40;;;;;;5114383;27;20379;-65
2022/06/29 12:02:34;;;;;;;;;;;28.30;89.60;;;;;;5113585;27;19916;-65
2022/06/29 12:05:01;;;;;;;;;;;28.50;88.00;;;;;;5070427;27;19990;-65
2022/06/29 12:07:28;;;;;;;;;;;28.40;86.10;;;;;;5117601;27;19912;-65
2022/06/29 12:09:54;;;;;;;;;;;27.40;89.30;;;;;;5111598;27;20010;-65
2022/06/29 12:12:20;;;;;;;;;;;26.60;91.10;;;;;;5117749;27;19915;-65
2022/06/29 12:14:46;;;;;;;;;;;26.10;94.40;;;;;;5106536;27;20121;-65
2022/06/29 12:17:15;;;;;;;;;;;25.70;92.00;;;;;;5111727;27;20367;-65
2022/06/29 12:19:41;;;;;;;;;;;25.60;94.50;;;;;;5116846;27;20414;-65
2022/06/29 12:22:07;;;;;;;;;;;26.00;92.60;;;;;;5115445;27;19922;-65
2022/06/29 12:24:33;;;;;;;;;;;25.90;92.70;;;;;;5096013;27;19908;-65
2022/06/29 12:26:58;;;;;;;;;;;26.00;92.30;;;;;;5115068;27;19920;-65
2022/06/29 12:29:24;;;;;;;;;;;26.10;92.20;;;;;;5113464;27;19920;-65
2022/06/29 12:31:49;;;;;;;;;;;26.20;91.00;;;;;;5108507;27;20359;-65
2022/06/29 12:34:15;;;;;;;;;;;26.20;92.10;;;;;;5110433;27;20256;-65
2022/06/29 12:36:41;;;;;;;;;;;26.10;93.50;;;;;;5110556;27;19915;-65
2022/06/29 12:39:06;;;;;;;;;;;26.10;93.90;;;;;;5113446;27;19915;-65
2022/06/29 12:41:33;;;;;;;;;;;25.90;93.50;;;;;;5115908;27;19911;-65
2022/06/29 12:43:59;;;;;;;;;;;25.80;94.40;;;;;;5102773;27;19912;-65
2022/06/29 12:46:27;;;;;;;;;;;25.80;92.90;;;;;;5113570;27;19912;-65
2022/06/29 12:48:53;;;;;;;;;;;25.80;92.40;;;;;;5111964;27;19938;-65
2022/06/29 12:51:18;;;;;;;;;;;25.80;92.30;;;;;;5117736;27;19908;-65
2022/06/29 12:53:44;;;;;;;;;;;25.90;94.00;;;;;;5113309;27;19995;-65
2022/06/29 12:56:09;;;;;;;;;;;25.70;93.30;;;;;;5110713;27;19916;-65
2022/06/29 12:58:35;;;;;;;;;;;26.10;91.80;;;;;;5116550;27;20077;-65
2022/06/29 13:01:01;;;;;;;;;;;26.60;92.50;;;;;;5115646;27;19966;-65
2022/06/29 13:03:26;;;;;;;;;;;27.50;91.80;;;;;;5111079;27;20310;-65
2022/06/29 13:05:52;;;;;;;;;;;28.40;90.50;;;;;;5107776;27;19954;-65
2022/06/29 13:08:17;;;;;;;;;;;29.70;88.60;;;;;;5115588;27;20329;-65
2022/06/29 13:10:43;;;;;;;;;;;29.90;88.10;;;;;;5104945;27;19911;-66
2022/06/29 13:13:09;;;;;;;;;;;30.50;86.10;;;;;;5115885;27;20255;-66
2022/06/29 13:15:34;;;;;;;;;;;30.00;84.60;;;;;;5109762;27;20228;-66
2022/06/29 13:18:02;;;;;;;;;;;29.20;84.30;;;;;;5110612;27;20014;-65
2022/06/29 13:20:28;;;;;;;;;;;29.00;83.80;;;;;;5089302;28;19908;-65
2022/06/29 13:22:54;;;;;;;;;;;28.40;86.80;;;;;;5116168;27;20013;-65
2022/06/29 13:25:19;;;;;;;;;;;28.10;88.40;;;;;;5107702;27;20617;-65
2022/06/29 13:27:45;;;;;;;;;;;28.00;89.20;;;;;;5111461;27;19960;-65
2022/06/29 13:30:11;;;;;;;;;;;28.60;88.00;;;;;;5119473;27;19942;-66
2022/06/29 13:32:36;;;;;;;;;;;28.90;83.90;;;;;;5118480;27;20240;-66
2022/06/29 13:35:02;;;;;;;;;;;29.40;82.90;;;;;;5118311;27;19975;-66
2022/06/29 13:37:27;;;;;;;;;;;30.40;77.00;;;;;;5115464;27;19926;-65
2022/06/29 13:39:53;;;;;;;;;;;30.60;80.30;;;;;;5095550;27;20846;-66
2022/06/29 13:42:18;;;;;;;;;;;30.40;78.40;;;;;;5111119;27;19952;-65
2022/06/29 13:44:44;;;;;;;;;;;29.80;77.60;;;;;;5112019;27;19916;-65
2022/06/29 13:47:09;;;;;;;;;;;29.70;78.20;;;;;;5109401;27;19915;-66
2022/06/29 13:49:35;;;;;;;;;;;29.20;77.80;;;;;;5105000;27;19978;-66
2022/06/29 13:52:01;;;;;;;;;;;29.00;79.00;;;;;;5118091;27;19908;-66
2022/06/29 13:54:27;;;;;;;;;;;28.30;80.70;;;;;;5119141;27;19907;-65
2022/06/29 13:56:53;;;;;;;;;;;27.90;80.80;;;;;;5112455;27;19911;-65
2022/06/29 13:59:18;;;;;;;;;;;27.50;82.20;;;;;;5108441;28;19915;-66
2022/06/29 14:01:44;;;;;;;;;;;27.60;87.30;;;;;;5109636;28;19991;-65
2022/06/29 14:04:09;;;;;;;;;;;27.90;80.10;;;;;;5095605;28;20333;-66
2022/06/29 14:06:35;;;;;;;;;;;28.50;82.50;;;;;;5108353;28;19912;-65
2022/06/29 14:09:00;;;;;;;;;;;29.70;78.80;;;;;;5113942;28;20222;-66
2022/06/29 14:11:26;;;;;;;;;;;30.40;78.50;;;;;;5110155;28;20575;-65
2022/06/29 14:13:51;;;;;;;;;;;29.90;76.90;;;;;;5111239;28;20273;-65
2022/06/29 14:16:17;;;;;;;;;;;29.80;80.00;;;;;;5118351;28;19919;-66
2022/06/29 14:18:43;;;;;;;;;;;29.30;77.40;;;;;;5105692;28;20014;-65
2022/06/29 14:21:09;;;;;;;;;;;29.00;76.80;;;;;;5115269;28;19911;-65
2022/06/29 14:23:35;;;;;;;;;;;28.60;77.10;;;;;;5113242;28;19908;-66
2022/06/29 14:26:00;;;;;;;;;;;28.40;80.60;;;;;;5091862;28;19919;-66
2022/06/29 14:28:26;;;;;;;;;;;28.20;84.60;;;;;;5109300;28;19972;-65
2022/06/29 14:30:51;;;;;;;;;;;28.10;84.90;;;;;;5116791;28;19912;-66
2022/06/29 14:33:17;;;;;;;;;;;27.80;85.10;;;;;;5117651;28;20033;-66
2022/06/29 14:35:42;;;;;;;;;;;28.00;85.50;;;;;;5114021;28;19916;-65
2022/06/29 14:38:08;;;;;;;;;;;28.50;86.70;;;;;;5114923;28;19916;-65